createdAt,value
2018-07-26T00:00:58.540Z,30
2018-07-26T00:01:59.736Z,30
2018-07-26T00:03:00.944Z,30
2018-07-26T00:04:04.460Z,30
2018-07-26T00:05:07.059Z,30
2018-07-26T00:06:08.306Z,30
2018-07-26T00:07:09.502Z,29.9
2018-07-26T00:08:10.693Z,30
2018-07-26T00:09:11.843Z,30
2018-07-26T00:10:13.245Z,30
2018-07-26T00:11:14.431Z,30
2018-07-26T00:12:15.599Z,30
2018-07-26T00:13:26.733Z,30
2018-07-26T00:14:27.902Z,30
2018-07-26T00:15:29.115Z,29.9
2018-07-26T00:16:30.314Z,29.9
2018-07-26T00:17:31.820Z,29.9
2018-07-26T00:18:32.990Z,29.8
2018-07-26T00:19:34.171Z,29.8
2018-07-26T00:20:35.383Z,29.9
2018-07-26T00:21:39.002Z,29.8
2018-07-26T00:22:40.182Z,29.9
2018-07-26T00:23:41.355Z,29.9
2018-07-26T00:24:42.546Z,29.9
2018-07-26T00:25:58.226Z,29.9
2018-07-26T00:26:59.388Z,29.8
2018-07-26T00:28:00.566Z,29.8
2018-07-26T00:29:01.895Z,29.7
2018-07-26T00:30:03.095Z,29.7
2018-07-26T00:31:04.327Z,29.7
2018-07-26T00:32:08.122Z,29.7
2018-07-26T00:33:09.318Z,29.7
2018-07-26T00:34:10.487Z,29.7
2018-07-26T00:35:11.673Z,29.6
2018-07-26T00:36:15.339Z,29.7
2018-07-26T00:37:16.777Z,29.7
2018-07-26T00:38:20.651Z,29.7
2018-07-26T00:39:32.203Z,29.7
2018-07-26T00:40:33.388Z,29.7
2018-07-26T00:41:34.863Z,29.7
2018-07-26T00:42:38.993Z,29.7
2018-07-26T00:43:40.171Z,29.7
2018-07-26T00:44:41.342Z,29.6
2018-07-26T00:45:42.631Z,29.6
2018-07-26T00:46:43.868Z,29.7
2018-07-26T00:47:47.545Z,29.6
2018-07-26T00:48:48.945Z,29.6
2018-07-26T00:49:50.091Z,29.6
2018-07-26T00:50:51.258Z,29.6
2018-07-26T00:51:52.469Z,29.5
2018-07-26T00:52:53.666Z,29.5
2018-07-26T00:53:54.842Z,29.5
2018-07-26T00:54:56.110Z,29.5
2018-07-26T00:55:57.301Z,29.5
2018-07-26T00:56:58.503Z,29.5
2018-07-26T00:57:59.680Z,29.5
2018-07-26T00:59:00.906Z,29.5
2018-07-26T01:00:04.555Z,29.5
2018-07-26T01:01:05.742Z,29.5
2018-07-26T01:02:08.940Z,29.4
2018-07-26T01:03:12.750Z,29.4
2018-07-26T01:04:13.933Z,29.4
2018-07-26T01:05:15.094Z,29.4
2018-07-26T01:06:16.626Z,29.4
2018-07-26T01:07:18.236Z,29.4
2018-07-26T01:08:19.640Z,29.4
2018-07-26T01:09:20.852Z,29.4
2018-07-26T01:10:21.998Z,29.4
2018-07-26T01:11:23.160Z,29.4
2018-07-26T01:12:24.345Z,29.4
2018-07-26T01:13:25.826Z,29.4
2018-07-26T01:14:27.261Z,29.3
2018-07-26T01:15:28.425Z,29.4
2018-07-26T01:16:29.579Z,29.4
2018-07-26T01:17:30.904Z,29.4
2018-07-26T01:18:32.088Z,29.4
2018-07-26T01:19:33.289Z,29.4
2018-07-26T01:20:34.461Z,29.3
2018-07-26T01:21:35.874Z,29.3
2018-07-26T01:22:37.114Z,29.3
2018-07-26T01:23:38.313Z,29.2
2018-07-26T01:24:39.486Z,29.2
2018-07-26T01:25:40.671Z,29.2
2018-07-26T01:26:41.836Z,29.2
2018-07-26T01:27:43.025Z,29.2
2018-07-26T01:28:44.226Z,29.2
2018-07-26T01:29:45.388Z,29.2
2018-07-26T01:30:46.958Z,29.2
2018-07-26T01:31:48.160Z,29.2
2018-07-26T01:32:49.391Z,29.2
2018-07-26T01:33:51.955Z,29.2
2018-07-26T01:34:53.130Z,29.1
2018-07-26T01:35:54.310Z,29.1
2018-07-26T01:36:55.466Z,29.1
2018-07-26T01:37:58.280Z,29.1
2018-07-26T01:39:00.842Z,29.1
2018-07-26T01:40:02.031Z,29.1
2018-07-26T01:41:03.214Z,29.1
2018-07-26T01:42:07.418Z,29.1
2018-07-26T01:43:08.646Z,29.1
2018-07-26T01:44:09.815Z,29.1
2018-07-26T01:45:11.014Z,29.1
2018-07-26T01:46:12.195Z,29
2018-07-26T01:47:13.646Z,29
2018-07-26T01:48:14.892Z,29
2018-07-26T01:49:16.113Z,29
2018-07-26T01:50:17.278Z,29.1
2018-07-26T01:51:21.546Z,29.1
2018-07-26T01:52:22.710Z,29
2018-07-26T01:53:23.940Z,29
2018-07-26T01:54:25.197Z,29
2018-07-26T01:55:26.418Z,29
2018-07-26T01:56:27.578Z,29
2018-07-26T01:57:28.813Z,29
2018-07-26T01:58:30.018Z,29
2018-07-26T01:59:31.209Z,28.9
2018-07-26T02:00:32.362Z,28.9
2018-07-26T02:01:33.565Z,28.9
2018-07-26T02:02:34.794Z,28.9
2018-07-26T02:03:36.066Z,28.9
2018-07-26T02:04:37.244Z,28.8
2018-07-26T02:05:38.414Z,28.8
2018-07-26T02:06:39.642Z,28.8
2018-07-26T02:07:41.849Z,28.7
2018-07-26T02:08:43.826Z,28.8
2018-07-26T02:09:44.991Z,28.8
2018-07-26T02:10:46.139Z,28.8
2018-07-26T02:11:47.319Z,28.8
2018-07-26T02:12:48.502Z,28.8
2018-07-26T02:13:49.728Z,28.7
2018-07-26T02:14:52.200Z,28.7
2018-07-26T02:15:53.358Z,28.7
2018-07-26T02:16:56.263Z,28.8
2018-07-26T02:17:57.477Z,28.7
2018-07-26T02:18:58.670Z,28.7
2018-07-26T02:19:59.846Z,28.6
2018-07-26T02:21:01.010Z,28.7
2018-07-26T02:22:06.033Z,28.8
2018-07-26T02:23:07.200Z,28.7
2018-07-26T02:24:08.430Z,28.7
2018-07-26T02:25:09.614Z,28.6
2018-07-26T02:26:10.786Z,28.7
2018-07-26T02:27:14.758Z,28.6
2018-07-26T02:28:15.947Z,28.6
2018-07-26T02:29:19.541Z,28.6
2018-07-26T02:30:20.715Z,28.6
2018-07-26T02:31:22.968Z,28.6
2018-07-26T02:32:24.146Z,28.6
2018-07-26T02:33:25.690Z,28.5
2018-07-26T02:34:26.904Z,28.5
2018-07-26T02:35:28.056Z,28.5
2018-07-26T02:36:29.227Z,28.5
2018-07-26T02:37:30.402Z,28.4
2018-07-26T02:38:31.582Z,28.5
2018-07-26T02:39:33.116Z,28.4
2018-07-26T02:40:34.299Z,28.4
2018-07-26T02:41:41.673Z,28.4
2018-07-26T02:42:43.079Z,28.4
2018-07-26T02:43:44.329Z,28.4
2018-07-26T02:44:45.539Z,28.4
2018-07-26T02:45:46.739Z,28.4
2018-07-26T02:46:50.784Z,28.4
2018-07-26T02:47:54.639Z,28.4
2018-07-26T02:48:55.818Z,28.4
2018-07-26T02:49:57.023Z,28.4
2018-07-26T02:50:58.182Z,28.4
2018-07-26T02:52:03.422Z,28.4
2018-07-26T02:53:06.790Z,28.4
2018-07-26T02:54:07.950Z,28.3
2018-07-26T02:55:11.417Z,28.4
2018-07-26T02:56:15.610Z,28.4
2018-07-26T02:57:16.845Z,28.4
2018-07-26T02:58:17.976Z,28.3
2018-07-26T02:59:19.275Z,28.3
2018-07-26T03:00:23.541Z,28.3
2018-07-26T03:01:26.972Z,28.3
2018-07-26T03:02:28.180Z,28.3
2018-07-26T03:03:29.560Z,28.3
2018-07-26T03:04:33.223Z,28.2
2018-07-26T03:05:34.476Z,28.2
2018-07-26T03:06:37.827Z,28.2
2018-07-26T03:07:41.255Z,28.2
2018-07-26T03:08:42.414Z,28.2
2018-07-26T03:09:43.586Z,28.2
2018-07-26T03:10:45.088Z,28.2
2018-07-26T03:11:46.301Z,28.2
2018-07-26T03:12:47.459Z,28.2
2018-07-26T03:13:48.631Z,28.2
2018-07-26T03:14:49.823Z,28.1
2018-07-26T03:15:51.514Z,28
2018-07-26T03:16:53.246Z,28.1
2018-07-26T03:17:54.399Z,28.1
2018-07-26T03:18:55.568Z,28.2
2018-07-26T03:19:56.757Z,28.1
2018-07-26T03:20:57.991Z,28.1
2018-07-26T03:21:59.132Z,28.1
2018-07-26T03:23:00.306Z,28
2018-07-26T03:24:04.243Z,28.1
2018-07-26T03:25:05.455Z,27.9
2018-07-26T03:26:06.854Z,28
2018-07-26T03:27:08.173Z,28
2018-07-26T03:28:10.235Z,28
2018-07-26T03:29:11.431Z,28
2018-07-26T03:30:12.603Z,28
2018-07-26T03:31:13.819Z,28
2018-07-26T03:32:18.117Z,28
2018-07-26T03:33:19.321Z,28
2018-07-26T03:34:24.640Z,28
2018-07-26T03:35:25.796Z,28
2018-07-26T03:36:27.038Z,28
2018-07-26T03:37:28.281Z,28
2018-07-26T03:38:29.486Z,27.9
2018-07-26T03:39:30.659Z,28
2018-07-26T03:40:31.813Z,27.9
2018-07-26T03:41:33.071Z,27.9
2018-07-26T03:42:34.322Z,27.9
2018-07-26T03:43:38.750Z,27.9
2018-07-26T03:44:39.846Z,27.9
2018-07-26T03:45:41.262Z,28
2018-07-26T03:46:42.486Z,28
2018-07-26T03:47:45.834Z,27.9
2018-07-26T03:48:49.794Z,27.9
2018-07-26T03:49:51.203Z,27.9
2018-07-26T03:50:52.376Z,27.9
2018-07-26T03:51:53.571Z,27.9
2018-07-26T03:52:54.742Z,27.9
2018-07-26T03:53:57.709Z,27.9
2018-07-26T03:54:58.882Z,27.9
2018-07-26T03:56:00.031Z,27.9
2018-07-26T03:57:01.319Z,27.9
2018-07-26T03:58:02.493Z,27.9
2018-07-26T03:59:06.028Z,27.9
2018-07-26T04:00:09.446Z,27.9
2018-07-26T04:01:13.380Z,28
2018-07-26T04:02:14.594Z,27.9
2018-07-26T04:03:16.110Z,27.9
2018-07-26T04:04:17.326Z,27.9
2018-07-26T04:05:18.509Z,27.9
2018-07-26T04:06:19.676Z,27.8
2018-07-26T04:07:20.907Z,27.9
2018-07-26T04:08:22.076Z,27.9
2018-07-26T04:09:23.251Z,27.9
2018-07-26T04:10:24.433Z,27.9
2018-07-26T04:11:25.631Z,27.9
2018-07-26T04:12:29.343Z,27.9
2018-07-26T04:13:30.519Z,27.9
2018-07-26T04:14:31.711Z,27.8
2018-07-26T04:15:32.901Z,27.8
2018-07-26T04:16:34.073Z,27.9
2018-07-26T04:17:35.258Z,28
2018-07-26T04:18:36.467Z,28
2018-07-26T04:19:37.644Z,28
2018-07-26T04:20:38.842Z,28
2018-07-26T04:21:40.027Z,28
2018-07-26T04:22:41.251Z,28
2018-07-26T04:23:42.459Z,28
2018-07-26T04:24:46.101Z,28
2018-07-26T04:25:48.083Z,28.1
2018-07-26T04:26:49.194Z,28.1
2018-07-26T04:27:52.654Z,28.2
2018-07-26T04:28:53.831Z,28.2
2018-07-26T04:29:55.004Z,28.2
2018-07-26T04:30:57.871Z,28.3
2018-07-26T04:31:59.072Z,28.3
2018-07-26T04:33:00.647Z,28.3
2018-07-26T04:34:02.180Z,28.4
2018-07-26T04:35:03.351Z,28.4
2018-07-26T04:36:07.292Z,28.4
2018-07-26T04:37:11.250Z,28.5
2018-07-26T04:38:12.492Z,28.5
2018-07-26T04:39:13.662Z,28.6
2018-07-26T04:40:17.073Z,28.6
2018-07-26T04:41:18.662Z,28.7
2018-07-26T04:42:19.942Z,28.7
2018-07-26T04:43:21.390Z,28.8
2018-07-26T04:44:22.567Z,28.8
2018-07-26T04:45:24.423Z,28.9
2018-07-26T04:46:28.358Z,29
2018-07-26T04:47:29.550Z,29
2018-07-26T04:48:30.784Z,29.1
2018-07-26T04:49:31.962Z,29.2
2018-07-26T04:50:33.142Z,29.2
2018-07-26T04:51:34.318Z,29.3
2018-07-26T04:52:35.501Z,29.4
2018-07-26T04:53:36.774Z,29.4
2018-07-26T04:54:38.287Z,29.5
2018-07-26T04:55:39.608Z,29.5
2018-07-26T04:56:41.093Z,29.6
2018-07-26T04:57:42.291Z,29.6
2018-07-26T04:58:43.510Z,29.8
2018-07-26T04:59:44.694Z,29.9
2018-07-26T05:00:45.868Z,30
2018-07-26T05:01:47.148Z,30.1
2018-07-26T05:02:48.331Z,30.1
2018-07-26T05:03:50.855Z,30.2
2018-07-26T05:04:52.039Z,30.3
2018-07-26T05:05:53.185Z,30.4
2018-07-26T05:06:54.394Z,30.4
2018-07-26T05:07:55.599Z,30.5
2018-07-26T05:08:58.955Z,30.6
2018-07-26T05:10:00.126Z,30.6
2018-07-26T05:11:01.327Z,30.7
2018-07-26T05:12:08.695Z,30.7
2018-07-26T05:13:10.246Z,30.8
2018-07-26T05:14:11.657Z,30.9
2018-07-26T05:15:15.003Z,30.9
2018-07-26T05:16:16.191Z,31
2018-07-26T05:17:17.422Z,31
2018-07-26T05:18:18.605Z,31.1
2018-07-26T05:19:21.159Z,31.1
2018-07-26T05:20:25.122Z,31.2
2018-07-26T05:21:27.038Z,31.3
2018-07-26T05:22:28.240Z,31.3
2018-07-26T05:23:29.395Z,31.4
2018-07-26T05:24:30.614Z,31.3
2018-07-26T05:25:33.984Z,31.5
2018-07-26T05:26:35.747Z,31.6
2018-07-26T05:27:37.353Z,31.7
2018-07-26T05:28:39.907Z,31.7
2018-07-26T05:29:41.128Z,31.8
2018-07-26T05:30:42.348Z,31.9
2018-07-26T05:31:43.556Z,31.9
2018-07-26T05:32:44.729Z,32
2018-07-26T05:33:45.960Z,32.1
2018-07-26T05:34:47.284Z,32.2
2018-07-26T05:35:51.393Z,32.2
2018-07-26T05:36:53.217Z,32.3
2018-07-26T05:38:00.096Z,32.4
2018-07-26T05:39:02.841Z,32.5
2018-07-26T05:40:05.605Z,32.6
2018-07-26T05:41:08.326Z,32.6
2018-07-26T05:42:10.974Z,32.7
2018-07-26T05:43:15.946Z,32.8
2018-07-26T05:44:18.765Z,32.8
2018-07-26T05:45:24.343Z,32.9
2018-07-26T05:46:26.856Z,33
2018-07-26T05:47:38.450Z,33.1
2018-07-26T05:48:44.908Z,33.2
2018-07-26T05:49:49.424Z,33.2
2018-07-26T05:50:51.955Z,33.3
2018-07-26T05:51:54.497Z,33.4
2018-07-26T05:52:59.030Z,33.5
2018-07-26T05:54:04.159Z,33.6
2018-07-26T05:55:10.273Z,33.7
2018-07-26T05:56:12.856Z,33.8
2018-07-26T05:57:15.568Z,33.9
2018-07-26T05:58:19.353Z,34
2018-07-26T05:59:22.250Z,34.1
2018-07-26T06:00:24.958Z,34.2
2018-07-26T06:01:27.742Z,34.3
2018-07-26T06:02:32.072Z,34.4
2018-07-26T06:03:34.565Z,34.5
2018-07-26T06:04:39.832Z,34.5
2018-07-26T06:05:45.028Z,34.6
2018-07-26T06:06:47.515Z,34.7
2018-07-26T06:07:49.781Z,34.7
2018-07-26T06:08:54.610Z,34.8
2018-07-26T06:09:55.823Z,34.8
2018-07-26T06:10:59.471Z,34.9
2018-07-26T06:12:00.772Z,35
2018-07-26T06:13:01.993Z,35
2018-07-26T06:14:05.439Z,35.1
2018-07-26T06:15:07.437Z,35.2
2018-07-26T06:16:09.988Z,35.2
2018-07-26T06:17:14.875Z,35.3
2018-07-26T06:18:17.423Z,35.3
2018-07-26T06:19:19.279Z,35.3
2018-07-26T06:20:20.731Z,35.5
2018-07-26T06:21:22.203Z,35.5
2018-07-26T06:22:23.436Z,35.7
2018-07-26T06:23:24.715Z,35.7
2018-07-26T06:24:25.907Z,35.7
2018-07-26T06:25:27.163Z,35.7
2018-07-26T06:26:28.337Z,35.8
2018-07-26T06:27:29.581Z,35.9
2018-07-26T06:28:30.865Z,35.9
2018-07-26T06:29:32.245Z,36
2018-07-26T06:30:33.675Z,36.1
2018-07-26T06:31:35.871Z,36.1
2018-07-26T06:32:37.380Z,36.1
2018-07-26T06:33:38.606Z,36.1
2018-07-26T06:34:44.167Z,36.2
2018-07-26T06:35:45.454Z,36.2
2018-07-26T06:36:48.982Z,36.4
2018-07-26T06:37:50.276Z,36.5
2018-07-26T06:38:51.793Z,36.4
2018-07-26T06:39:54.013Z,36.5
2018-07-26T06:40:57.366Z,36.6
2018-07-26T06:42:01.190Z,36.7
2018-07-26T06:43:02.698Z,36.9
2018-07-26T06:44:05.156Z,37
2018-07-26T06:45:06.327Z,37
2018-07-26T06:46:07.614Z,37.1
2018-07-26T06:47:08.838Z,37.2
2018-07-26T06:48:11.278Z,37.2
2018-07-26T06:49:12.477Z,37.2
2018-07-26T06:50:13.696Z,37.3
2018-07-26T06:51:14.877Z,37.4
2018-07-26T06:52:16.498Z,37.4
2018-07-26T06:53:18.282Z,37.5
2018-07-26T06:54:19.567Z,37.5
2018-07-26T06:55:20.734Z,37.5
2018-07-26T06:56:21.971Z,37.6
2018-07-26T06:57:23.199Z,37.7
2018-07-26T06:58:24.410Z,37.7
2018-07-26T06:59:25.587Z,37.7
2018-07-26T07:00:26.782Z,37.8
2018-07-26T07:01:30.217Z,37.8
2018-07-26T07:02:31.446Z,37.9
2018-07-26T07:03:35.134Z,37.9
2018-07-26T07:04:37.480Z,37.8
2018-07-26T07:05:38.677Z,37.9
2018-07-26T07:06:39.919Z,37.8
2018-07-26T07:07:44.505Z,37.9
2018-07-26T07:08:45.716Z,38
2018-07-26T07:09:46.879Z,38
2018-07-26T07:10:48.064Z,38
2018-07-26T07:11:49.239Z,38.1
2018-07-26T07:12:50.436Z,38.1
2018-07-26T07:13:51.695Z,38.1
2018-07-26T07:14:52.934Z,38.2
2018-07-26T07:15:54.188Z,38.2
2018-07-26T07:16:56.424Z,38.2
2018-07-26T07:18:02.503Z,38.3
2018-07-26T07:19:06.491Z,38.4
2018-07-26T07:20:10.063Z,38.6
2018-07-26T07:21:11.245Z,38.6
2018-07-26T07:22:12.405Z,38.7
2018-07-26T07:23:13.628Z,38.7
2018-07-26T07:24:14.900Z,38.7
2018-07-26T07:25:16.247Z,38.7
2018-07-26T07:26:18.033Z,38.7
2018-07-26T07:27:21.251Z,38.8
2018-07-26T07:28:22.473Z,38.9
2018-07-26T07:29:26.279Z,38.9
2018-07-26T07:30:27.517Z,38.9
2018-07-26T07:31:28.746Z,38.9
2018-07-26T07:32:29.961Z,39
2018-07-26T07:33:31.135Z,39.1
2018-07-26T07:34:32.451Z,39.1
2018-07-26T07:35:35.738Z,39.1
2018-07-26T07:36:37.208Z,39
2018-07-26T07:37:41.521Z,39.1
2018-07-26T07:38:44.834Z,39.2
2018-07-26T07:39:46.061Z,39.2
2018-07-26T07:40:47.365Z,39.2
2018-07-26T07:41:50.921Z,39.3
2018-07-26T07:42:52.314Z,39.3
2018-07-26T07:43:56.244Z,39.4
2018-07-26T07:44:57.556Z,39.3
2018-07-26T07:45:58.723Z,39.3
2018-07-26T07:46:59.956Z,39.3
2018-07-26T07:48:01.240Z,39.3
2018-07-26T07:49:03.602Z,39.4
2018-07-26T07:50:05.008Z,39.3
2018-07-26T07:51:06.234Z,39.4
2018-07-26T07:52:07.591Z,39.5
2018-07-26T07:53:08.821Z,39.5
2018-07-26T07:54:10.084Z,39.6
2018-07-26T07:55:13.354Z,39.6
2018-07-26T07:56:16.489Z,39.7
2018-07-26T07:57:21.430Z,39.7
2018-07-26T07:58:22.745Z,39.7
2018-07-26T07:59:23.980Z,39.7
2018-07-26T08:00:26.338Z,39.7
2018-07-26T08:01:28.550Z,39.7
2018-07-26T08:02:29.753Z,39.8
2018-07-26T08:03:30.914Z,39.8
2018-07-26T08:04:32.102Z,39.9
2018-07-26T08:05:34.231Z,39.9
2018-07-26T08:06:35.467Z,39.8
2018-07-26T08:07:36.697Z,39.9
2018-07-26T08:08:38.276Z,40
2018-07-26T08:09:43.301Z,39.9
2018-07-26T08:10:44.527Z,39.9
2018-07-26T08:11:45.744Z,39.9
2018-07-26T08:12:52.352Z,40
2018-07-26T08:13:56.274Z,40
2018-07-26T08:14:59.045Z,40
2018-07-26T08:16:00.376Z,39.9
2018-07-26T08:17:01.858Z,39.9
2018-07-26T08:18:03.816Z,40
2018-07-26T08:19:05.104Z,40
2018-07-26T08:20:06.343Z,40
2018-07-26T08:21:08.089Z,40.1
2018-07-26T08:22:09.330Z,40.1
2018-07-26T08:23:10.556Z,40.2
2018-07-26T08:24:12.119Z,40.2
2018-07-26T08:25:14.575Z,40.2
2018-07-26T08:26:18.217Z,40.2
2018-07-26T08:27:19.507Z,40.3
2018-07-26T08:28:20.794Z,40.2
2018-07-26T08:29:22.092Z,40.3
2018-07-26T08:30:23.634Z,40.3
2018-07-26T08:31:28.216Z,40.3
2018-07-26T08:32:29.450Z,40.4
2018-07-26T08:33:30.688Z,40.3
2018-07-26T08:34:32.038Z,40.4
2018-07-26T08:35:33.279Z,40.5
2018-07-26T08:36:34.531Z,40.4
2018-07-26T08:37:35.761Z,40.4
2018-07-26T08:38:37.079Z,40.4
2018-07-26T08:39:38.483Z,40.3
2018-07-26T08:40:39.673Z,40.3
2018-07-26T08:41:41.002Z,40.3
2018-07-26T08:42:42.771Z,40.3
2018-07-26T08:43:46.865Z,40.4
2018-07-26T08:44:48.276Z,40.4
2018-07-26T08:45:49.529Z,40.4
2018-07-26T08:46:50.747Z,40.5
2018-07-26T08:47:56.032Z,40.6
2018-07-26T08:48:57.284Z,40.5
2018-07-26T08:49:58.578Z,40.4
2018-07-26T08:50:59.933Z,40.4
2018-07-26T08:52:03.133Z,40.4
2018-07-26T08:53:04.426Z,40.4
2018-07-26T08:54:06.194Z,40.5
2018-07-26T08:55:07.780Z,40.5
2018-07-26T08:56:11.593Z,40.4
2018-07-26T08:57:12.858Z,40.4
2018-07-26T08:58:16.431Z,40.5
2018-07-26T08:59:18.800Z,40.5
2018-07-26T09:00:20.030Z,40.6
2018-07-26T09:01:21.242Z,40.6
2018-07-26T09:02:22.490Z,40.5
2018-07-26T09:03:23.739Z,40.4
2018-07-26T09:04:24.978Z,40.6
2018-07-26T09:05:26.197Z,40.6
2018-07-26T09:06:27.366Z,40.5
2018-07-26T09:07:28.686Z,40.4
2018-07-26T09:08:29.871Z,40.4
2018-07-26T09:09:33.555Z,40.4
2018-07-26T09:10:37.231Z,40.3
2018-07-26T09:11:42.829Z,40.4
2018-07-26T09:12:44.064Z,40.4
2018-07-26T09:13:45.354Z,40.5
2018-07-26T09:14:46.520Z,40.5
2018-07-26T09:15:47.832Z,40.5
2018-07-26T09:16:50.065Z,40.6
2018-07-26T09:17:51.326Z,40.5
2018-07-26T09:18:52.542Z,40.4
2018-07-26T09:19:53.755Z,40.4
2018-07-26T09:20:55.779Z,40.3
2018-07-26T09:21:57.013Z,40.3
2018-07-26T09:22:59.307Z,40.2
2018-07-26T09:24:01.738Z,40.2
2018-07-26T09:25:03.976Z,40.2
2018-07-26T09:26:05.208Z,40.2
2018-07-26T09:27:06.526Z,40.7
2018-07-26T09:28:08.584Z,40.5
2018-07-26T09:29:10.138Z,40.3
2018-07-26T09:30:12.370Z,40.3
2018-07-26T09:31:13.585Z,40.1
2018-07-26T09:32:15.127Z,40
2018-07-26T09:33:16.411Z,40.1
2018-07-26T09:34:17.914Z,40
2018-07-26T09:35:19.156Z,40
2018-07-26T09:36:20.616Z,40.3
2018-07-26T09:37:21.884Z,40.2
2018-07-26T09:38:23.711Z,40
2018-07-26T09:39:25.321Z,39.9
2018-07-26T09:40:26.495Z,39.9
2018-07-26T09:41:32.465Z,39.8
2018-07-26T09:42:33.756Z,39.9
2018-07-26T09:43:35.039Z,39.9
2018-07-26T09:44:36.247Z,39.8
2018-07-26T09:45:37.450Z,39.8
2018-07-26T09:46:41.056Z,39.8
2018-07-26T09:47:42.274Z,39.7
2018-07-26T09:48:44.385Z,39.6
2018-07-26T09:49:45.924Z,39.6
2018-07-26T09:50:47.598Z,39.6
2018-07-26T09:51:48.862Z,39.6
2018-07-26T09:52:50.173Z,39.6
2018-07-26T09:53:51.559Z,39.6
2018-07-26T09:54:57.505Z,39.5
2018-07-26T09:56:02.788Z,39.4
2018-07-26T09:57:04.959Z,39.4
2018-07-26T09:58:06.174Z,39.4
2018-07-26T09:59:07.438Z,39.5
2018-07-26T10:00:10.179Z,39.4
2018-07-26T10:01:12.466Z,39.5
2018-07-26T10:02:18.125Z,39.4
2018-07-26T10:03:20.698Z,39.4
2018-07-26T10:04:24.244Z,39.4
2018-07-26T10:05:25.505Z,39.5
2018-07-26T10:06:26.718Z,39.6
2018-07-26T10:07:28.507Z,39.5
2018-07-26T10:08:29.907Z,39.4
2018-07-26T10:09:31.329Z,39.5
2018-07-26T10:10:33.543Z,39.4
2018-07-26T10:11:34.722Z,39.3
2018-07-26T10:12:36.167Z,39.5
2018-07-26T10:13:37.623Z,39.3
2018-07-26T10:14:42.914Z,39.3
2018-07-26T10:15:44.159Z,39.4
2018-07-26T10:16:47.422Z,39.7
2018-07-26T10:17:48.656Z,39.5
2018-07-26T10:18:50.134Z,39.4
2018-07-26T10:19:51.413Z,39.3
2018-07-26T10:20:52.617Z,39.4
2018-07-26T10:22:04.042Z,39.4
2018-07-26T10:23:05.246Z,39.5
2018-07-26T10:24:06.813Z,39.4
2018-07-26T10:25:09.234Z,39.3
2018-07-26T10:26:10.418Z,39.2
2018-07-26T10:27:13.790Z,39.3
2018-07-26T10:28:15.547Z,39.2
2018-07-26T10:29:17.490Z,39.2
2018-07-26T10:30:18.874Z,39.2
2018-07-26T10:31:20.497Z,39.2
2018-07-26T10:32:21.793Z,39.1
2018-07-26T10:33:23.153Z,39.1
2018-07-26T10:34:27.432Z,39.2
2018-07-26T10:35:30.260Z,39.1
2018-07-26T10:36:31.620Z,39.1
2018-07-26T10:37:35.192Z,39.2
2018-07-26T10:38:36.796Z,39.2
2018-07-26T10:39:38.024Z,39.1
2018-07-26T10:40:39.370Z,39.1
2018-07-26T10:41:40.874Z,39.1
2018-07-26T10:42:42.158Z,39
2018-07-26T10:43:43.721Z,38.9
2018-07-26T10:44:44.932Z,38.9
2018-07-26T10:45:46.182Z,38.9
2018-07-26T10:46:48.718Z,38.8
2018-07-26T10:47:52.530Z,38.8
2018-07-26T10:48:58.391Z,38.8
2018-07-26T10:50:04.003Z,38.8
2018-07-26T10:51:05.314Z,38.7
2018-07-26T10:52:08.703Z,38.9
2018-07-26T10:53:10.094Z,38.8
2018-07-26T10:54:11.313Z,38.7
2018-07-26T10:55:15.263Z,38.8
2018-07-26T10:56:16.732Z,38.8
2018-07-26T10:57:23.998Z,38.8
2018-07-26T10:58:26.294Z,38.8
2018-07-26T10:59:32.638Z,38.7
2018-07-26T11:00:33.907Z,38.7
2018-07-26T11:01:37.558Z,38.7
2018-07-26T11:02:39.851Z,38.7
2018-07-26T11:03:41.629Z,38.7
2018-07-26T11:04:53.148Z,38.6
2018-07-26T11:05:54.355Z,38.7
2018-07-26T11:06:55.698Z,38.7
2018-07-26T11:07:56.916Z,38.6
2018-07-26T11:08:58.421Z,38.6
2018-07-26T11:10:00.271Z,38.6
2018-07-26T11:11:01.786Z,38.5
2018-07-26T11:12:05.613Z,38.5
2018-07-26T11:13:06.827Z,38.5
2018-07-26T11:14:10.680Z,38.5
2018-07-26T11:15:11.933Z,38.4
2018-07-26T11:16:13.150Z,38.4
2018-07-26T11:17:17.967Z,38.3
2018-07-26T11:18:21.630Z,38.3
2018-07-26T11:19:24.291Z,38.3
2018-07-26T11:20:25.616Z,38.4
2018-07-26T11:21:27.087Z,38.4
2018-07-26T11:22:28.573Z,38.4
2018-07-26T11:23:32.105Z,38.5
2018-07-26T11:24:33.414Z,38.4
2018-07-26T11:25:35.682Z,38.4
2018-07-26T11:26:41.481Z,38.4
2018-07-26T11:27:42.919Z,38.3
2018-07-26T11:28:44.266Z,38.2
2018-07-26T11:29:46.743Z,38.1
2018-07-26T11:30:47.818Z,38.3
2018-07-26T11:31:49.223Z,38.3
2018-07-26T11:32:50.464Z,38.2
2018-07-26T11:33:51.683Z,38.1
2018-07-26T11:34:57.144Z,38.2
2018-07-26T11:35:58.400Z,38
2018-07-26T11:36:59.719Z,38.1
2018-07-26T11:38:03.366Z,38
2018-07-26T11:39:04.659Z,38
2018-07-26T11:40:05.901Z,38
2018-07-26T11:41:07.202Z,38
2018-07-26T11:42:08.550Z,37.9
2018-07-26T11:43:12.535Z,38
2018-07-26T11:44:13.721Z,38
2018-07-26T11:45:17.594Z,37.9
2018-07-26T11:46:18.809Z,37.8
2018-07-26T11:47:20.020Z,37.8
2018-07-26T11:48:21.252Z,37.8
2018-07-26T11:49:22.817Z,37.8
2018-07-26T11:50:34.381Z,37.8
2018-07-26T11:51:35.631Z,37.7
2018-07-26T11:52:39.380Z,37.8
2018-07-26T11:53:40.723Z,37.8
2018-07-26T11:54:44.969Z,37.7
2018-07-26T11:55:48.285Z,37.7
2018-07-26T11:56:50.763Z,37.6
2018-07-26T11:57:51.897Z,37.7
2018-07-26T11:58:53.695Z,37.6
2018-07-26T11:59:58.143Z,37.6
2018-07-26T12:01:02.445Z,37.6
2018-07-26T12:02:05.919Z,37.7
2018-07-26T12:03:07.214Z,37.6
2018-07-26T12:04:08.561Z,37.6
2018-07-26T12:05:09.870Z,37.5
2018-07-26T12:06:17.158Z,37.5
2018-07-26T12:08:39.539Z,37.5
2018-07-26T12:09:43.441Z,37.6
2018-07-26T12:10:49.491Z,37.5
2018-07-26T12:11:51.693Z,37.5
2018-07-26T12:12:52.893Z,37.4
2018-07-26T12:13:54.353Z,37.5
2018-07-26T12:14:55.603Z,37.4
2018-07-26T12:15:56.869Z,37.4
2018-07-26T12:17:01.303Z,37.4
2018-07-26T12:18:02.509Z,37.2
2018-07-26T12:19:03.794Z,37.3
2018-07-26T12:20:07.822Z,37.2
2018-07-26T12:21:11.218Z,37.2
2018-07-26T12:22:12.448Z,37.3
2018-07-26T12:23:13.676Z,37.2
2018-07-26T12:24:14.955Z,37.3
2018-07-26T12:25:16.419Z,37.3
2018-07-26T12:26:21.973Z,37.3
2018-07-26T12:27:23.253Z,37.2
2018-07-26T12:28:24.706Z,37.2
2018-07-26T12:29:26.153Z,37.3
2018-07-26T12:30:27.514Z,37.3
2018-07-26T12:31:29.577Z,37.3
2018-07-26T12:32:30.862Z,37.3
2018-07-26T12:33:34.561Z,37.2
2018-07-26T12:34:35.742Z,37.2
2018-07-26T12:35:37.242Z,37.1
2018-07-26T12:36:41.375Z,37.1
2018-07-26T12:37:42.743Z,37
2018-07-26T12:38:44.576Z,37.1
2018-07-26T12:39:48.353Z,37.2
2018-07-26T12:40:49.630Z,37
2018-07-26T12:41:52.219Z,37
2018-07-26T12:42:53.415Z,37.1
2018-07-26T12:43:54.598Z,37
2018-07-26T12:44:56.302Z,37
2018-07-26T12:46:01.525Z,36.9
2018-07-26T12:47:03.259Z,37
2018-07-26T12:48:04.731Z,36.9
2018-07-26T12:49:06.356Z,36.9
2018-07-26T12:50:07.610Z,36.9
2018-07-26T12:51:09.023Z,36.9
2018-07-26T12:52:10.381Z,36.9
2018-07-26T12:53:11.612Z,36.9
2018-07-26T12:54:12.793Z,36.9
2018-07-26T12:55:14.950Z,36.8
2018-07-26T12:56:18.650Z,36.9
2018-07-26T12:57:19.898Z,36.8
2018-07-26T12:58:23.534Z,36.6
2018-07-26T12:59:39.499Z,36.7
2018-07-26T13:00:40.755Z,36.8
2018-07-26T13:01:42.308Z,36.6
2018-07-26T13:02:50.291Z,36.5
2018-07-26T13:03:51.574Z,36.5
2018-07-26T13:04:52.846Z,36.6
2018-07-26T13:05:54.347Z,36.7
2018-07-26T13:06:55.719Z,36.7
2018-07-26T13:07:57.062Z,36.7
2018-07-26T13:08:58.455Z,36.6
2018-07-26T13:10:01.916Z,36.7
2018-07-26T13:11:03.215Z,36.7
2018-07-26T13:12:05.778Z,36.7
2018-07-26T13:13:07.903Z,36.5
2018-07-26T13:14:09.398Z,36.6
2018-07-26T13:15:10.631Z,36.7
2018-07-26T13:16:11.863Z,36.7
2018-07-26T13:17:13.144Z,36.6
2018-07-26T13:18:14.727Z,36.6
2018-07-26T13:19:18.094Z,36.7
2018-07-26T13:20:19.472Z,36.7
2018-07-26T13:21:20.734Z,36.7
2018-07-26T13:22:22.045Z,36.7
2018-07-26T13:23:23.274Z,36.7
2018-07-26T13:24:25.638Z,36.7
2018-07-26T13:25:26.824Z,36.7
2018-07-26T13:26:28.498Z,36.7
2018-07-26T13:27:32.172Z,36.6
2018-07-26T13:28:33.350Z,36.6
2018-07-26T13:29:34.578Z,36.6
2018-07-26T13:30:38.517Z,36.5
2018-07-26T13:31:46.872Z,36.6
2018-07-26T13:32:48.635Z,36.5
2018-07-26T13:33:50.390Z,36.6
2018-07-26T13:34:54.281Z,36.6
2018-07-26T13:35:56.819Z,36.6
2018-07-26T13:36:58.325Z,36.6
2018-07-26T13:38:05.994Z,36.4
2018-07-26T13:39:09.423Z,36.5
2018-07-26T13:40:13.362Z,36.5
2018-07-26T13:41:14.916Z,36.5
2018-07-26T13:42:17.220Z,36.4
2018-07-26T13:43:18.793Z,36.5
2018-07-26T13:44:20.073Z,36.2
2018-07-26T13:45:22.322Z,36.2
2018-07-26T13:46:23.596Z,36.4
2018-07-26T13:47:24.821Z,36.4
2018-07-26T13:48:27.222Z,36.4
2018-07-26T13:49:28.639Z,36.4
2018-07-26T13:50:29.875Z,36.5
2018-07-26T13:51:31.058Z,36.4
2018-07-26T13:52:32.288Z,36.4
2018-07-26T13:53:33.504Z,36.3
2018-07-26T13:54:43.356Z,36.4